Kristina — WDI5000 — position and weather

sailwx.info

Track history (hours):
 
Tides and Currents Weather Stations Pressure Air Temp Water Temp Dewpoint Dewpoint Depression Visibility Wind Speed Wind Dir Waves Ship Positions

Kristina

Owner: Harbor Breeze Corp, Long Beach, CA. More information available from US FCC via Universal Licensing System and Coast Guard Vessel Documentation Center.

Last reported at 2018-Feb-19 01:30 UTC. Time now 2018-Feb-19 01:43 UTC.
Position N 33°45' W 118°10'.

Length 24 m.

Type: Passenger vessel. MMSI: 367704150.

Date/timePositionNaut miles runAvg speedWind from/ knotsBaromVisibWave heightAir tempDewpointWater temp
2018-Feb-19 01:30N 33°45' W 118°10'2 3.5
2018-Feb-19 01:01N 33°46' W 118°12'0 0.0
2018-Feb-19 00:29N 33°46' W 118°12'1 3.0
2018-Feb-19 00:01N 33°45' W 118°10'1 2.8
2018-Feb-18 23:30N 33°46' W 118°12'0 0.0
2018-Feb-18 23:01N 33°46' W 118°12'1 2.7
2018-Feb-18 22:30N 33°45' W 118°10'1 2.7
2018-Feb-18 22:00N 33°46' W 118°12'0 0.0
2018-Feb-18 21:31N 33°46' W 118°12'1 2.2
2018-Feb-18 21:00N 33°45' W 118°11'1 2.2
2018-Feb-18 20:29N 33°46' W 118°12'0 0.0
2018-Feb-18 20:00N 33°46' W 118°12'0 0.0
2018-Feb-18 19:30N 33°46' W 118°12'0 0.0
2018-Feb-18 03:11N 33°46' W 118°12'2 7.6
2018-Feb-18 02:56N 33°45' W 118°10'2 1.7
2018-Feb-18 01:48N 33°46' W 118°12'2 4.8
2018-Feb-18 01:28N 33°45' W 118°10'2 3.4
2018-Feb-18 01:00N 33°46' W 118°12'0 0.0
2018-Feb-18 00:30N 33°46' W 118°12'1 2.7
2018-Feb-18 00:00N 33°45' W 118°10'1 2.6
2018-Feb-17 23:29N 33°46' W 118°12'0 0.0
2018-Feb-17 23:00N 33°46' W 118°12'2 3.5
2018-Feb-17 22:30N 33°45' W 118°10'2 3.4
2018-Feb-17 22:00N 33°46' W 118°12'0 0.0
2018-Feb-17 21:30N 33°46' W 118°12'2 4.2
2018-Feb-17 21:00N 33°44' W 118°10'2 4.3
2018-Feb-17 20:30N 33°46' W 118°12'0 0.0
2018-Feb-17 20:00N 33°46' W 118°12'0 0.0
2018-Feb-17 19:30N 33°46' W 118°12'4 8.0
2018-Feb-17 19:00N 33°42' W 118°11'0 0.8
2018-Feb-17 18:30N 33°42' W 118°11'4 8.2
2018-Feb-17 18:01N 33°46' W 118°12'0 0.0
2018-Feb-17 17:30N 33°46' W 118°12'0 0.0
2018-Feb-17 03:24N 33°46' W 118°12'0 0.0
2018-Feb-17 02:58N 33°46' W 118°12'1 2.2
2018-Feb-17 02:30N 33°45' W 118°11'1 1.7
2018-Feb-17 01:54N 33°46' W 118°12'2 4.0
2018-Feb-17 01:30N 33°45' W 118°10'2 3.4
2018-Feb-17 01:00N 33°46' W 118°12'0 0.0
2018-Feb-17 00:30N 33°46' W 118°12'1 3.1
2018-Feb-17 00:00N 33°45' W 118°10'1 2.9
2018-Feb-16 23:29N 33°46' W 118°12'0 0.0
2018-Feb-16 22:58N 33°46' W 118°12'1 2.7
2018-Feb-16 22:30N 33°45' W 118°10'1 2.5
2018-Feb-16 22:00N 33°46' W 118°12'0 0.0
2018-Feb-16 21:30N 33°46' W 118°12'1 1.9
2018-Feb-16 21:00N 33°45' W 118°11'1 1.9
2018-Feb-16 20:30N 33°46' W 118°12'0 0.0
2018-Feb-16 20:00N 33°46' W 118°12'0 0.0
2018-Feb-16 19:30N 33°46' W 118°12'0 0.0
2018-Feb-16 19:00N 33°46' W 118°12'0 0.0
2018-Feb-16 18:30N 33°46' W 118°12'0 0.0
2018-Feb-16 18:01N 33°46' W 118°12'0 0.0
2018-Feb-16 17:30N 33°46' W 118°12'0 0.0
2018-Feb-16 17:00N 33°46' W 118°12'0 0.0
2018-Feb-16 02:57N 33°46' W 118°12'2 3.4
2018-Feb-16 02:30N 33°44' W 118°11'1 2.0
2018-Feb-16 01:46N 33°46' W 118°12'2 6.5
2018-Feb-16 01:30N 33°45' W 118°10'2 3.4
2018-Feb-16 01:00N 33°46' W 118°12'0 0.0
2018-Feb-16 00:30N 33°46' W 118°12'2 3.2
2018-Feb-16 00:00N 33°45' W 118°10'2 3.4
2018-Feb-15 23:30N 33°46' W 118°12'0 0.0
2018-Feb-15 23:00N 33°46' W 118°12'1 2.9
2018-Feb-15 22:30N 33°45' W 118°10'1 2.9
2018-Feb-15 22:00N 33°46' W 118°12'0 0.0
2018-Feb-15 21:30N 33°46' W 118°12'1 2.7
2018-Feb-15 21:00N 33°45' W 118°11'1 2.7
2018-Feb-15 20:30N 33°46' W 118°12'0 0.1
2018-Feb-15 17:33N 33°46' W 118°12'0 3.0
2018-Feb-15 17:30N 33°46' W 118°12'0 0.0
2018-Feb-15 03:20N 33°46' W 118°12'2 3.5
2018-Feb-15 02:42N 33°44' W 118°10'2 7.1
2018-Feb-15 02:28N 33°45' W 118°11'1 1.0
2018-Feb-15 01:52N 33°46' W 118°12'2 6.3
2018-Feb-15 01:31N 33°44' W 118°11'2 4.5
2018-Feb-15 01:00N 33°46' W 118°12'0 0.0
2018-Feb-15 00:28N 33°46' W 118°12'2 4.4
2018-Feb-15 00:01N 33°44' W 118°11'2 4.1
2018-Feb-14 23:31N 33°46' W 118°12'0 0.0
2018-Feb-14 23:00N 33°46' W 118°12'2 3.3
2018-Feb-14 22:31N 33°45' W 118°10'2 3.2
2018-Feb-14 22:00N 33°46' W 118°12'0 0.0
2018-Feb-14 21:30N 33°46' W 118°12'1 2.4
2018-Feb-14 21:01N 33°45' W 118°11'1 2.0
2018-Feb-14 20:31N 33°46' W 118°12'1 1.9
2018-Feb-14 20:01N 33°45' W 118°11'1 2.3
2018-Feb-14 19:31N 33°46' W 118°12'0 0.0
2018-Feb-14 19:01N 33°46' W 118°12'0 0.0
2018-Feb-14 03:00N 33°46' W 118°12'1 2.5
2018-Feb-14 02:30N 33°45' W 118°11'1 2.6
2018-Feb-14 02:00N 33°46' W 118°12'2 3.1
2018-Feb-14 01:30N 33°45' W 118°10'2 3.1
2018-Feb-14 01:00N 33°46' W 118°12'0 0.0
2018-Feb-14 00:30N 33°46' W 118°12'1 2.9
2018-Feb-14 00:00N 33°45' W 118°10'1 3.0
2018-Feb-13 23:30N 33°46' W 118°12'0 0.0
2018-Feb-13 23:00N 33°46' W 118°12'2 3.4
2018-Feb-13 22:30N 33°45' W 118°10'2 3.4
2018-Feb-13 22:00N 33°46' W 118°12'0 0.0
2018-Feb-13 21:30N 33°46' W 118°12'1 2.8
2018-Feb-13 21:00N 33°45' W 118°11'1 2.8
2018-Feb-13 20:30N 33°46' W 118°12'1 2.7
2018-Feb-13 20:00N 33°45' W 118°11'1 2.7
2018-Feb-13 19:30N 33°46' W 118°12'0 0.0
2018-Feb-13 19:00N 33°46' W 118°12'0 0.0
2018-Feb-13 18:30N 33°46' W 118°12'0 0.0
2018-Feb-13 18:00N 33°46' W 118°12'0 0.0
2018-Feb-13 02:23N 33°46' W 118°12'0 0.0
2018-Feb-13 01:59N 33°46' W 118°12'2 4.6
2018-Feb-13 01:30N 33°44' W 118°10'2 4.2
2018-Feb-13 00:59N 33°46' W 118°12'0 0.0
2018-Feb-13 00:30N 33°46' W 118°12'2 3.2
2018-Feb-13 00:00N 33°45' W 118°10'2 3.2
2018-Feb-12 23:30N 33°46' W 118°12'0 0.0
2018-Feb-12 23:00N 33°46' W 118°12'2 3.3
2018-Feb-12 22:30N 33°45' W 118°10'2 3.3
2018-Feb-12 22:00N 33°46' W 118°12'0 0.0
2018-Feb-12 21:30N 33°46' W 118°12'2 3.1
2018-Feb-12 21:00N 33°44' W 118°11'2 3.2
2018-Feb-12 20:30N 33°46' W 118°12'2 3.4
2018-Feb-12 20:00N 33°44' W 118°11'2 3.4
2018-Feb-12 19:30N 33°46' W 118°12'0 0.0
2018-Feb-12 19:00N 33°46' W 118°12'2 0.1
2018-Feb-12 02:45N 33°44' W 118°11'2 6.8
2018-Feb-12 02:30N 33°46' W 118°12'0 0.0
2018-Feb-12 01:58N 33°46' W 118°12'1 3.0
2018-Feb-12 01:31N 33°45' W 118°10'1 2.8
2018-Feb-12 01:01N 33°46' W 118°12'0 0.0
2018-Feb-12 00:31N 33°46' W 118°12'2 4.4
2018-Feb-12 00:01N 33°45' W 118°09'2 4.4
2018-Feb-11 23:31N 33°46' W 118°12'0 0.0
2018-Feb-11 23:00N 33°46' W 118°12'2 4.0
2018-Feb-11 22:30N 33°45' W 118°10'2 4.2
2018-Feb-11 22:00N 33°46' W 118°12'0 0.0
2018-Feb-11 21:31N 33°46' W 118°12'2 3.8
2018-Feb-11 21:00N 33°45' W 118°10'2 4.0
2018-Feb-11 20:30N 33°46' W 118°12'0 0.0
2018-Feb-11 20:01N 33°46' W 118°12'0 0.0
2018-Feb-11 19:31N 33°46' W 118°12'2 3.9
2018-Feb-11 19:00N 33°44' W 118°11'2 4.6
2018-Feb-11 18:30N 33°43' W 118°08'4 7.7
2018-Feb-11 18:00N 33°46' W 118°12'0 0.0
2018-Feb-11 17:30N 33°46' W 118°12'0 0.0
2018-Feb-11 17:00N 33°46' W 118°12'0 0.0
2018-Feb-11 02:57N 33°46' W 118°12'1 1.7
2018-Feb-11 02:27N 33°45' W 118°11'1 1.2
2018-Feb-11 01:44N 33°46' W 118°12'0 0.4
2018-Feb-11 01:30N 33°46' W 118°12'1 3.0
2018-Feb-11 01:00N 33°44' W 118°11'2 3.1
2018-Feb-11 00:30N 33°46' W 118°12'2 3.3
2018-Feb-11 00:00N 33°45' W 118°10'2 3.3
2018-Feb-10 23:30N 33°46' W 118°12'0 0.0
2018-Feb-10 23:00N 33°46' W 118°12'1 2.4
2018-Feb-10 22:30N 33°45' W 118°10'1 2.5
2018-Feb-10 22:00N 33°46' W 118°12'0 0.0
2018-Feb-10 21:30N 33°46' W 118°12'1 0.2
2018-Feb-10 17:46N 33°45' W 118°11'1 2.5
2018-Feb-10 17:30N 33°46' W 118°12'0 0.0
2018-Feb-10 02:11N 33°46' W 118°12'0 0.0
2018-Feb-10 01:43N 33°46' W 118°12'1 6.3
2018-Feb-10 01:30N 33°45' W 118°10'1 2.6
2018-Feb-10 00:58N 33°46' W 118°12'0 0.0
2018-Feb-10 00:30N 33°46' W 118°12'1 2.4
2018-Feb-10 00:00N 33°45' W 118°11'1 2.3
2018-Feb-09 23:30N 33°46' W 118°12'0 0.0
2018-Feb-09 23:00N 33°46' W 118°12'0 0.0
2018-Feb-09 22:46N 33°46' W 118°12'0 0.0
2018-Feb-09 21:30N 33°46' W 118°12'0 0.0
2018-Feb-09 20:30N 33°46' W 118°12'4 1.5
2018-Feb-09 17:30N 33°44' W 118°17'0 0.0
2018-Feb-09 17:00N 33°44' W 118°17'3 5.4
2018-Feb-09 16:30N 33°43' W 118°13'  
Track history (hours):
 
Tides and Currents Weather Stations Pressure Air Temp Water Temp Dewpoint Dewpoint Depression Visibility Wind Speed Wind Dir Waves Ship Positions

Kristina

Owner: Harbor Breeze Corp, Long Beach, CA. More information available from US FCC via Universal Licensing System and Coast Guard Vessel Documentation Center.

Last reported at 2018-Feb-19 01:30 UTC. Time now 2018-Feb-19 01:43 UTC.
Position N 33°45' W 118°10'.

Length 24 m.

Type: Passenger vessel. MMSI: 367704150.

Date/timePositionNaut miles runAvg speedWind from/ knotsBaromVisibWave heightAir tempDewpointWater temp
2018-Feb-19 01:30N 33°45' W 118°10'2 3.5
2018-Feb-19 01:01N 33°46' W 118°12'0 0.0
2018-Feb-19 00:29N 33°46' W 118°12'1 3.0
2018-Feb-19 00:01N 33°45' W 118°10'1 2.8
2018-Feb-18 23:30N 33°46' W 118°12'0 0.0
2018-Feb-18 23:01N 33°46' W 118°12'1 2.7
2018-Feb-18 22:30N 33°45' W 118°10'1 2.7
2018-Feb-18 22:00N 33°46' W 118°12'0 0.0
2018-Feb-18 21:31N 33°46' W 118°12'1 2.2
2018-Feb-18 21:00N 33°45' W 118°11'1 2.2
2018-Feb-18 20:29N 33°46' W 118°12'0 0.0
2018-Feb-18 20:00N 33°46' W 118°12'0 0.0
2018-Feb-18 19:30N 33°46' W 118°12'0 0.0
2018-Feb-18 03:11N 33°46' W 118°12'2 7.6
2018-Feb-18 02:56N 33°45' W 118°10'2 1.7
2018-Feb-18 01:48N 33°46' W 118°12'2 4.8
2018-Feb-18 01:28N 33°45' W 118°10'2 3.4
2018-Feb-18 01:00N 33°46' W 118°12'0 0.0
2018-Feb-18 00:30N 33°46' W 118°12'1 2.7
2018-Feb-18 00:00N 33°45' W 118°10'1 2.6
2018-Feb-17 23:29N 33°46' W 118°12'0 0.0
2018-Feb-17 23:00N 33°46' W 118°12'2 3.5
2018-Feb-17 22:30N 33°45' W 118°10'2 3.4
2018-Feb-17 22:00N 33°46' W 118°12'0 0.0
2018-Feb-17 21:30N 33°46' W 118°12'2 4.2
2018-Feb-17 21:00N 33°44' W 118°10'2 4.3
2018-Feb-17 20:30N 33°46' W 118°12'0 0.0
2018-Feb-17 20:00N 33°46' W 118°12'0 0.0
2018-Feb-17 19:30N 33°46' W 118°12'4 8.0
2018-Feb-17 19:00N 33°42' W 118°11'0 0.8
2018-Feb-17 18:30N 33°42' W 118°11'4 8.2
2018-Feb-17 18:01N 33°46' W 118°12'0 0.0
2018-Feb-17 17:30N 33°46' W 118°12'0 0.0
2018-Feb-17 03:24N 33°46' W 118°12'0 0.0
2018-Feb-17 02:58N 33°46' W 118°12'1 2.2
2018-Feb-17 02:30N 33°45' W 118°11'1 1.7
2018-Feb-17 01:54N 33°46' W 118°12'2 4.0
2018-Feb-17 01:30N 33°45' W 118°10'2 3.4
2018-Feb-17 01:00N 33°46' W 118°12'0 0.0
2018-Feb-17 00:30N 33°46' W 118°12'1 3.1
2018-Feb-17 00:00N 33°45' W 118°10'1 2.9
2018-Feb-16 23:29N 33°46' W 118°12'0 0.0
2018-Feb-16 22:58N 33°46' W 118°12'1 2.7
2018-Feb-16 22:30N 33°45' W 118°10'1 2.5
2018-Feb-16 22:00N 33°46' W 118°12'0 0.0
2018-Feb-16 21:30N 33°46' W 118°12'1 1.9
2018-Feb-16 21:00N 33°45' W 118°11'1 1.9
2018-Feb-16 20:30N 33°46' W 118°12'0 0.0
2018-Feb-16 20:00N 33°46' W 118°12'0 0.0
2018-Feb-16 19:30N 33°46' W 118°12'0 0.0
2018-Feb-16 19:00N 33°46' W 118°12'0 0.0
2018-Feb-16 18:30N 33°46' W 118°12'0 0.0
2018-Feb-16 18:01N 33°46' W 118°12'0 0.0
2018-Feb-16 17:30N 33°46' W 118°12'0 0.0
2018-Feb-16 17:00N 33°46' W 118°12'0 0.0
2018-Feb-16 02:57N 33°46' W 118°12'2 3.4
2018-Feb-16 02:30N 33°44' W 118°11'1 2.0
2018-Feb-16 01:46N 33°46' W 118°12'2 6.5
2018-Feb-16 01:30N 33°45' W 118°10'2 3.4
2018-Feb-16 01:00N 33°46' W 118°12'0 0.0
2018-Feb-16 00:30N 33°46' W 118°12'2 3.2
2018-Feb-16 00:00N 33°45' W 118°10'2 3.4
2018-Feb-15 23:30N 33°46' W 118°12'0 0.0
2018-Feb-15 23:00N 33°46' W 118°12'1 2.9
2018-Feb-15 22:30N 33°45' W 118°10'1 2.9
2018-Feb-15 22:00N 33°46' W 118°12'0 0.0
2018-Feb-15 21:30N 33°46' W 118°12'1 2.7
2018-Feb-15 21:00N 33°45' W 118°11'1 2.7
2018-Feb-15 20:30N 33°46' W 118°12'0 0.1
2018-Feb-15 17:33N 33°46' W 118°12'0 3.0
2018-Feb-15 17:30N 33°46' W 118°12'0 0.0
2018-Feb-15 03:20N 33°46' W 118°12'2 3.5
2018-Feb-15 02:42N 33°44' W 118°10'2 7.1
2018-Feb-15 02:28N 33°45' W 118°11'1 1.0
2018-Feb-15 01:52N 33°46' W 118°12'2 6.3
2018-Feb-15 01:31N 33°44' W 118°11'2 4.5
2018-Feb-15 01:00N 33°46' W 118°12'0 0.0
2018-Feb-15 00:28N 33°46' W 118°12'2 4.4
2018-Feb-15 00:01N 33°44' W 118°11'2 4.1
2018-Feb-14 23:31N 33°46' W 118°12'0 0.0
2018-Feb-14 23:00N 33°46' W 118°12'2 3.3
2018-Feb-14 22:31N 33°45' W 118°10'2 3.2
2018-Feb-14 22:00N 33°46' W 118°12'0 0.0
2018-Feb-14 21:30N 33°46' W 118°12'1 2.4
2018-Feb-14 21:01N 33°45' W 118°11'1 2.0
2018-Feb-14 20:31N 33°46' W 118°12'1 1.9
2018-Feb-14 20:01N 33°45' W 118°11'1 2.3
2018-Feb-14 19:31N 33°46' W 118°12'0 0.0
2018-Feb-14 19:01N 33°46' W 118°12'0 0.0
2018-Feb-14 03:00N 33°46' W 118°12'1 2.5
2018-Feb-14 02:30N 33°45' W 118°11'1 2.6
2018-Feb-14 02:00N 33°46' W 118°12'2 3.1
2018-Feb-14 01:30N 33°45' W 118°10'2 3.1
2018-Feb-14 01:00N 33°46' W 118°12'0 0.0
2018-Feb-14 00:30N 33°46' W 118°12'1 2.9
2018-Feb-14 00:00N 33°45' W 118°10'1 3.0
2018-Feb-13 23:30N 33°46' W 118°12'0 0.0
2018-Feb-13 23:00N 33°46' W 118°12'2 3.4
2018-Feb-13 22:30N 33°45' W 118°10'2 3.4
2018-Feb-13 22:00N 33°46' W 118°12'0 0.0
2018-Feb-13 21:30N 33°46' W 118°12'1 2.8
2018-Feb-13 21:00N 33°45' W 118°11'1 2.8
2018-Feb-13 20:30N 33°46' W 118°12'1 2.7
2018-Feb-13 20:00N 33°45' W 118°11'1 2.7
2018-Feb-13 19:30N 33°46' W 118°12'0 0.0
2018-Feb-13 19:00N 33°46' W 118°12'0 0.0
2018-Feb-13 18:30N 33°46' W 118°12'0 0.0
2018-Feb-13 18:00N 33°46' W 118°12'0 0.0
2018-Feb-13 02:23N 33°46' W 118°12'0 0.0
2018-Feb-13 01:59N 33°46' W 118°12'2 4.6
2018-Feb-13 01:30N 33°44' W 118°10'2 4.2
2018-Feb-13 00:59N 33°46' W 118°12'0 0.0
2018-Feb-13 00:30N 33°46' W 118°12'2 3.2
2018-Feb-13 00:00N 33°45' W 118°10'2 3.2
2018-Feb-12 23:30N 33°46' W 118°12'0 0.0
2018-Feb-12 23:00N 33°46' W 118°12'2 3.3
2018-Feb-12 22:30N 33°45' W 118°10'2 3.3
2018-Feb-12 22:00N 33°46' W 118°12'0 0.0
2018-Feb-12 21:30N 33°46' W 118°12'2 3.1
2018-Feb-12 21:00N 33°44' W 118°11'2 3.2
2018-Feb-12 20:30N 33°46' W 118°12'2 3.4
2018-Feb-12 20:00N 33°44' W 118°11'2 3.4
2018-Feb-12 19:30N 33°46' W 118°12'0 0.0
2018-Feb-12 19:00N 33°46' W 118°12'2 0.1
2018-Feb-12 02:45N 33°44' W 118°11'2 6.8
2018-Feb-12 02:30N 33°46' W 118°12'0 0.0
2018-Feb-12 01:58N 33°46' W 118°12'1 3.0
2018-Feb-12 01:31N 33°45' W 118°10'1 2.8
2018-Feb-12 01:01N 33°46' W 118°12'0 0.0
2018-Feb-12 00:31N 33°46' W 118°12'2 4.4
2018-Feb-12 00:01N 33°45' W 118°09'2 4.4
2018-Feb-11 23:31N 33°46' W 118°12'0 0.0
2018-Feb-11 23:00N 33°46' W 118°12'2 4.0
2018-Feb-11 22:30N 33°45' W 118°10'2 4.2
2018-Feb-11 22:00N 33°46' W 118°12'0 0.0
2018-Feb-11 21:31N 33°46' W 118°12'2 3.8
2018-Feb-11 21:00N 33°45' W 118°10'2 4.0
2018-Feb-11 20:30N 33°46' W 118°12'0 0.0
2018-Feb-11 20:01N 33°46' W 118°12'0 0.0
2018-Feb-11 19:31N 33°46' W 118°12'2 3.9
2018-Feb-11 19:00N 33°44' W 118°11'2 4.6
2018-Feb-11 18:30N 33°43' W 118°08'4 7.7
2018-Feb-11 18:00N 33°46' W 118°12'0 0.0
2018-Feb-11 17:30N 33°46' W 118°12'0 0.0
2018-Feb-11 17:00N 33°46' W 118°12'0 0.0
2018-Feb-11 02:57N 33°46' W 118°12'1 1.7
2018-Feb-11 02:27N 33°45' W 118°11'1 1.2
2018-Feb-11 01:44N 33°46' W 118°12'0 0.4
2018-Feb-11 01:30N 33°46' W 118°12'1 3.0
2018-Feb-11 01:00N 33°44' W 118°11'2 3.1
2018-Feb-11 00:30N 33°46' W 118°12'2 3.3
2018-Feb-11 00:00N 33°45' W 118°10'2 3.3
2018-Feb-10 23:30N 33°46' W 118°12'0 0.0
2018-Feb-10 23:00N 33°46' W 118°12'1 2.4
2018-Feb-10 22:30N 33°45' W 118°10'1 2.5
2018-Feb-10 22:00N 33°46' W 118°12'0 0.0
2018-Feb-10 21:30N 33°46' W 118°12'1 0.2
2018-Feb-10 17:46N 33°45' W 118°11'1 2.5
2018-Feb-10 17:30N 33°46' W 118°12'0 0.0
2018-Feb-10 02:11N 33°46' W 118°12'0 0.0
2018-Feb-10 01:43N 33°46' W 118°12'1 6.3
2018-Feb-10 01:30N 33°45' W 118°10'1 2.6
2018-Feb-10 00:58N 33°46' W 118°12'0 0.0
2018-Feb-10 00:30N 33°46' W 118°12'1 2.4
2018-Feb-10 00:00N 33°45' W 118°11'1 2.3
2018-Feb-09 23:30N 33°46' W 118°12'0 0.0
2018-Feb-09 23:00N 33°46' W 118°12'0 0.0
2018-Feb-09 22:46N 33°46' W 118°12'0 0.0
2018-Feb-09 21:30N 33°46' W 118°12'0 0.0
2018-Feb-09 20:30N 33°46' W 118°12'4 1.5
2018-Feb-09 17:30N 33°44' W 118°17'0 0.0
2018-Feb-09 17:00N 33°44' W 118°17'3 5.4
2018-Feb-09 16:30N 33°43' W 118°13'  

Dump ship's entire track history